Time;durP1;ratioP1;P1;durP2;ratioP2;P2;SDS_P1;SDS_P2;PMS_P1;PMS_P2;Temp;Humidity;BMP_temperature;BMP_pressure;BME280_temperature;BME280_humidity;BME280_pressure;Samples;Min_cycle;Max_cycle;Signal;HPM_P1;HPM_P2
2022/01/28 00:00:25;;;;;;;22.70;11.27;;;2.90;99.90;;;;;;5081406;28;20040;-80
2022/01/28 00:02:57;;;;;;;23.48;12.30;;;2.80;99.90;;;;;;5082419;28;20028;-80
2022/01/28 00:05:23;;;;;;;21.27;10.97;;;2.90;99.90;;;;;;5080203;28;20025;-80
2022/01/28 00:07:53;;;;;;;21.13;10.45;;;2.80;99.90;;;;;;5078551;28;20324;-80
2022/01/28 00:10:20;;;;;;;20.40;10.27;;;2.90;99.90;;;;;;5078136;28;20028;-80
2022/01/28 00:13:09;;;;;;;20.52;10.23;;;2.80;99.90;;;;;;5078544;28;20028;-80
2022/01/28 00:15:46;;;;;;;25.00;11.07;;;2.80;99.90;;;;;;5078505;28;20035;-80
2022/01/28 00:19:07;;;;;;;23.42;10.57;;;2.90;99.90;;;;;;5077990;28;20107;-80
2022/01/28 00:39:47;;;;;;;16.38;10.13;;;3.00;99.90;;;;;;5076950;28;20031;-80
2022/01/28 00:42:13;;;;;;;25.95;11.65;;;3.00;99.90;;;;;;5079002;28;20048;-80
2022/01/28 00:44:39;;;;;;;22.92;12.02;;;2.90;99.90;;;;;;5078333;28;20037;-80
2022/01/28 00:47:04;;;;;;;23.23;11.32;;;2.90;99.90;;;;;;5077804;28;20029;-80
2022/01/28 00:49:30;;;;;;;19.10;10.00;;;3.00;99.90;;;;;;5077697;28;20074;-79
2022/01/28 00:51:56;;;;;;;22.45;12.82;;;4.20;99.90;;;;;;5077544;28;20048;-80
2022/01/28 00:54:22;;;;;;;26.35;13.20;;;3.00;99.90;;;;;;5077655;28;20098;-80
2022/01/28 00:56:48;;;;;;;23.15;12.60;;;4.60;99.90;;;;;;5077774;28;20397;-79
2022/01/28 00:59:15;;;;;;;21.05;11.98;;;4.80;99.90;;;;;;5077454;28;20044;-79
2022/01/28 01:01:41;;;;;;;22.38;12.00;;;3.00;99.90;;;;;;5076700;28;20568;-80
2022/01/28 01:04:06;;;;;;;23.92;11.43;;;3.00;99.90;;;;;;5061221;28;20020;-79
2022/01/28 01:06:33;;;;;;;23.67;11.85;;;3.00;99.90;;;;;;5077310;28;20096;-79
2022/01/28 01:08:59;;;;;;;25.27;12.10;;;3.00;99.90;;;;;;5076776;28;20020;-78
2022/01/28 01:11:26;;;;;;;21.95;11.60;;;3.00;99.90;;;;;;5077767;28;20017;-79
2022/01/28 01:13:52;;;;;;;20.58;11.18;;;3.10;99.90;;;;;;5077976;28;20044;-79
2022/01/28 01:16:27;;;;;;;25.20;12.45;;;3.00;99.90;;;;;;5082021;28;20033;-79
2022/01/28 01:21:53;;;;;;;18.30;10.25;;;3.10;99.90;;;;;;5078407;28;20048;-79
2022/01/28 01:24:22;;;;;;;25.42;12.68;;;4.40;99.90;;;;;;5089020;28;20028;-78
2022/01/28 01:26:49;;;;;;;21.15;11.52;;;3.10;99.90;;;;;;5081617;28;20054;-79
2022/01/28 01:29:17;;;;;;;19.00;10.88;;;3.10;99.90;;;;;;5087985;28;20086;-79
2022/01/28 01:31:43;;;;;;;19.98;11.25;;;3.20;99.90;;;;;;5078638;28;20052;-79
2022/01/28 01:34:16;;;;;;;20.98;10.77;;;3.10;99.90;;;;;;5074908;28;20052;-79
2022/01/28 01:36:43;;;;;;;20.77;11.18;;;3.30;99.90;;;;;;5075804;28;20028;-79
2022/01/28 01:39:10;;;;;;;21.60;11.27;;;3.30;99.90;;;;;;5075518;28;20032;-79
2022/01/28 01:41:43;;;;;;;19.55;9.90;;;3.20;99.90;;;;;;5076235;28;20027;-79
2022/01/28 01:44:22;;;;;;;22.13;11.05;;;3.20;99.90;;;;;;5076540;28;20036;-79
2022/01/28 01:52:30;;;;;;;19.13;11.27;;;3.20;99.90;;;;;;5074874;28;20032;-79
2022/01/28 01:54:56;;;;;;;21.42;10.75;;;3.20;99.90;;;;;;5075009;28;20029;-79
2022/01/28 01:57:21;;;;;;;19.95;11.30;;;3.30;99.90;;;;;;5074760;28;20104;-79
2022/01/28 01:59:48;;;;;;;17.92;9.70;;;3.30;99.90;;;;;;5073934;28;20095;-79
2022/01/28 02:02:14;;;;;;;25.23;11.38;;;3.30;99.90;;;;;;5074933;28;20120;-79
2022/01/28 02:04:40;;;;;;;21.17;11.75;;;3.30;99.90;;;;;;5075384;28;20028;-80
2022/01/28 02:07:06;;;;;;;20.42;10.85;;;3.20;99.90;;;;;;5076304;28;20475;-80
2022/01/28 02:09:31;;;;;;;20.38;12.25;;;3.30;99.90;;;;;;5074825;28;20028;-80
2022/01/28 02:11:57;;;;;;;20.90;11.07;;;3.40;99.90;;;;;;5077984;28;20033;-80
2022/01/28 02:14:23;;;;;;;17.23;9.38;;;3.40;99.90;;;;;;5076290;28;20115;-80
2022/01/28 02:16:48;;;;;;;19.58;11.65;;;3.20;99.90;;;;;;5075184;28;20126;-80
2022/01/28 02:19:14;;;;;;;20.00;11.63;;;4.90;99.90;;;;;;5073406;28;20037;-80
2022/01/28 02:21:45;;;;;;;21.98;11.88;;;3.40;99.90;;;;;;5074241;28;20111;-80
2022/01/28 02:24:13;;;;;;;22.03;12.20;;;3.40;99.90;;;;;;5074917;28;20024;-80
2022/01/28 02:26:39;;;;;;;20.77;12.07;;;3.40;99.90;;;;;;5074692;28;20032;-80
2022/01/28 02:29:12;;;;;;;19.63;11.07;;;3.40;99.90;;;;;;5073397;28;20027;-80
2022/01/28 02:31:38;;;;;;;18.88;11.25;;;3.40;99.90;;;;;;5075013;28;20127;-80
2022/01/28 02:34:05;;;;;;;26.13;11.00;;;3.40;99.90;;;;;;5073857;28;20075;-80
2022/01/28 02:36:31;;;;;;;23.75;11.88;;;4.60;99.90;;;;;;5074625;28;20035;-80
2022/01/28 02:39:00;;;;;;;21.75;12.35;;;3.40;99.90;;;;;;5074579;28;20025;-80
2022/01/28 02:41:31;;;;;;;22.40;12.25;;;3.50;99.90;;;;;;5074713;28;20063;-80
2022/01/28 02:44:20;;;;;;;20.38;12.25;;;3.50;99.90;;;;;;5074861;28;20035;-80
2022/01/28 02:46:56;;;;;;;23.60;12.48;;;3.90;99.90;;;;;;5075177;28;20405;-80
2022/01/28 02:49:25;;;;;;;21.70;11.35;;;3.40;99.90;;;;;;5075091;28;20028;-80
2022/01/28 02:51:51;;;;;;;23.55;11.23;;;5.40;99.90;;;;;;5074973;28;20024;-79
2022/01/28 02:54:18;;;;;;;22.83;13.18;;;3.60;99.90;;;;;;5075402;28;20484;-80
2022/01/28 02:56:50;;;;;;;20.60;11.15;;;3.40;99.90;;;;;;5077059;28;20033;-79
2022/01/28 02:59:15;;;;;;;25.65;13.20;;;3.50;99.90;;;;;;5074375;28;20093;-79
2022/01/28 03:01:41;;;;;;;22.05;12.02;;;3.50;99.90;;;;;;5074535;28;20041;-79
2022/01/28 03:04:09;;;;;;;25.35;13.75;;;3.50;99.90;;;;;;5075732;28;20075;-79
2022/01/28 03:06:35;;;;;;;20.95;11.73;;;3.40;99.90;;;;;;5077620;28;20473;-79
2022/01/28 03:09:12;;;;;;;21.70;12.55;;;4.40;99.90;;;;;;5075794;28;20106;-80
2022/01/28 03:16:35;;;;;;;24.83;13.52;;;3.50;99.90;;;;;;5073425;28;20085;-80
2022/01/28 03:19:24;;;;;;;23.98;12.40;;;4.90;99.90;;;;;;5072110;28;20024;-80
2022/01/28 03:21:57;;;;;;;26.13;12.48;;;3.40;99.90;;;;;;5074240;28;20449;-80
2022/01/28 03:24:25;;;;;;;23.50;11.90;;;3.40;99.90;;;;;;5073335;28;20428;-80
2022/01/28 03:26:55;;;;;;;22.88;13.15;;;3.40;99.90;;;;;;5077338;28;20024;-80
2022/01/28 03:29:21;;;;;;;26.20;13.00;;;3.30;99.90;;;;;;5078054;28;20008;-80
2022/01/28 03:31:46;;;;;;;28.00;14.40;;;3.20;99.90;;;;;;5078853;28;20515;-80
2022/01/28 03:34:12;;;;;;;26.63;13.95;;;3.10;99.90;;;;;;5078625;28;20024;-80
2022/01/28 03:36:38;;;;;;;20.77;11.40;;;3.00;99.90;;;;;;5078375;28;20459;-80
2022/01/28 03:39:04;;;;;;;24.90;13.70;;;3.20;99.90;;;;;;5082161;28;20037;-79
2022/01/28 03:41:30;;;;;;;26.67;13.98;;;3.10;99.90;;;;;;5087328;28;20025;-79
2022/01/28 03:43:58;;;;;;;22.25;12.43;;;3.10;99.90;;;;;;5082788;28;20089;-79
2022/01/28 03:46:25;;;;;;;30.30;14.05;;;3.10;99.90;;;;;;5091138;28;20092;-79
2022/01/28 03:48:52;;;;;;;29.67;14.27;;;3.00;99.90;;;;;;5077910;28;20025;-79
2022/01/28 03:51:18;;;;;;;27.10;13.77;;;2.90;99.90;;;;;;5078664;28;20035;-79
2022/01/28 03:53:44;;;;;;;29.65;14.77;;;3.00;99.90;;;;;;5078432;28;20064;-79
2022/01/28 03:56:09;;;;;;;29.33;14.68;;;4.60;99.90;;;;;;5078236;28;20047;-79
2022/01/28 03:58:35;;;;;;;33.40;14.75;;;3.00;99.90;;;;;;5077710;28;20043;-79
2022/01/28 04:01:02;;;;;;;27.70;14.40;;;3.10;99.90;;;;;;5078459;28;20068;-79
2022/01/28 04:11:34;;;;;;;27.95;14.15;;;4.40;99.90;;;;;;5078036;28;20059;-79
2022/01/28 04:19:32;;;;;;;24.50;11.88;;;3.10;99.90;;;;;;5076835;28;20115;-79
2022/01/28 04:21:58;;;;;;;24.33;11.63;;;3.10;99.90;;;;;;5076576;28;20075;-80
2022/01/28 04:24:24;;;;;;;29.95;14.63;;;3.20;99.90;;;;;;5078146;28;20126;-79
2022/01/28 04:26:49;;;;;;;29.48;13.38;;;3.10;99.90;;;;;;5078030;28;20032;-80
2022/01/28 04:29:15;;;;;;;34.92;15.40;;;3.20;99.90;;;;;;5077527;28;20033;-80
2022/01/28 04:31:44;;;;;;;28.15;14.65;;;3.10;99.90;;;;;;5077945;28;20032;-79
2022/01/28 04:34:11;;;;;;;26.63;13.70;;;3.10;99.90;;;;;;5063814;28;20024;-80
2022/01/28 04:36:44;;;;;;;33.38;15.27;;;3.10;99.90;;;;;;5078701;28;20064;-80
2022/01/28 04:39:21;;;;;;;32.22;16.40;;;3.80;99.90;;;;;;5077784;28;20029;-79
2022/01/28 04:44:58;;;;;;;30.08;14.52;;;4.00;99.90;;;;;;5067565;28;20032;-79
2022/01/28 04:47:37;;;;;;;30.80;15.20;;;4.90;99.90;;;;;;5078409;28;20038;-80
2022/01/28 04:50:21;;;;;;;28.38;13.25;;;4.10;99.90;;;;;;5077604;28;20431;-79
2022/01/28 04:55:30;;;;;;;34.42;16.42;;;2.90;99.90;;;;;;5078358;28;20035;-79
2022/01/28 04:58:10;;;;;;;34.38;15.55;;;2.60;99.90;;;;;;5078621;28;20025;-79
2022/01/28 05:03:32;;;;;;;34.90;14.82;;;2.60;99.90;;;;;;5079194;28;20025;-80
2022/01/28 05:11:18;;;;;;;32.83;15.80;;;2.70;99.90;;;;;;5077979;28;20040;-79
2022/01/28 05:27:03;;;;;;;31.45;14.75;;;2.90;99.90;;;;;;5083498;28;20017;-78
2022/01/28 05:29:28;;;;;;;32.42;14.90;;;2.90;99.90;;;;;;5078088;28;20021;-79
2022/01/28 05:31:54;;;;;;;32.83;14.93;;;3.00;99.90;;;;;;5077816;28;20064;-79
2022/01/28 05:34:23;;;;;;;38.25;15.18;;;2.90;99.90;;;;;;5078465;28;20031;-78
2022/01/28 05:36:50;;;;;;;37.90;16.50;;;2.90;99.90;;;;;;5077241;28;20061;-79
2022/01/28 05:39:15;;;;;;;35.55;16.85;;;2.90;99.90;;;;;;5076461;28;20078;-79
2022/01/28 05:41:41;;;;;;;35.30;16.52;;;2.90;99.90;;;;;;5077211;28;20032;-79
2022/01/28 05:44:07;;;;;;;36.28;16.42;;;2.90;99.90;;;;;;5078347;28;20031;-79
2022/01/28 05:46:33;;;;;;;37.67;16.58;;;2.80;99.90;;;;;;5083872;28;20127;-79
2022/01/28 05:48:58;;;;;;;31.95;14.77;;;3.30;99.90;;;;;;5082632;28;20029;-78
2022/01/28 05:51:25;;;;;;;34.55;16.15;;;2.90;99.90;;;;;;5083219;28;20038;-78
2022/01/28 05:53:51;;;;;;;36.40;17.77;;;2.90;99.90;;;;;;5083496;28;20499;-79
2022/01/28 05:56:16;;;;;;;35.63;16.98;;;2.90;99.90;;;;;;5082768;28;20028;-79
2022/01/28 05:58:42;;;;;;;33.45;15.90;;;1.20;99.90;;;;;;5083300;28;20063;-79
2022/01/28 06:01:07;;;;;;;36.03;16.50;;;5.00;99.90;;;;;;5085181;28;20029;-79
2022/01/28 06:03:33;;;;;;;32.75;14.60;;;3.10;99.90;;;;;;5086228;28;20024;-79
2022/01/28 06:05:59;;;;;;;24.30;11.13;;;2.90;99.90;;;;;;5075270;28;20029;-79
2022/01/28 06:08:24;;;;;;;38.13;17.50;;;2.80;99.90;;;;;;5075918;28;20063;-79
2022/01/28 06:10:50;;;;;;;39.70;17.08;;;2.90;99.90;;;;;;5075055;28;20040;-79
2022/01/28 06:13:16;;;;;;;40.92;17.85;;;3.00;99.90;;;;;;5072892;28;20036;-79
2022/01/28 06:15:42;;;;;;;43.60;18.10;;;3.00;99.90;;;;;;5064547;28;20021;-79
2022/01/28 06:18:12;;;;;;;36.65;17.60;;;3.10;99.90;;;;;;5065473;28;20029;-79
2022/01/28 06:20:38;;;;;;;40.53;17.58;;;3.10;99.90;;;;;;5059211;28;20574;-79
2022/01/28 06:23:04;;;;;;;33.22;16.80;;;3.10;99.90;;;;;;5062770;28;20036;-79
2022/01/28 06:25:30;;;;;;;38.63;16.45;;;3.20;99.90;;;;;;5075338;28;20630;-79
2022/01/28 06:27:56;;;;;;;36.78;15.85;;;3.20;99.90;;;;;;5076716;28;20036;-79
2022/01/28 06:30:22;;;;;;;33.10;15.20;;;3.10;99.90;;;;;;5074924;28;20021;-79
2022/01/28 06:32:49;;;;;;;37.15;17.27;;;3.10;99.90;;;;;;5075968;28;20032;-79
2022/01/28 06:35:15;;;;;;;32.85;12.88;;;3.10;99.90;;;;;;5075718;28;20116;-79
2022/01/28 06:37:43;;;;;;;35.83;15.60;;;3.20;99.90;;;;;;5074570;28;20055;-79
2022/01/28 06:40:11;;;;;;;39.45;16.27;;;3.20;99.90;;;;;;5077609;28;20032;-79
2022/01/28 06:42:37;;;;;;;35.88;15.15;;;3.30;99.90;;;;;;5075027;28;20067;-79
2022/01/28 06:45:04;;;;;;;39.05;16.77;;;3.30;99.90;;;;;;5075058;28;20025;-79
2022/01/28 06:47:30;;;;;;;33.67;15.95;;;3.20;99.90;;;;;;5073040;28;20025;-79
2022/01/28 06:49:56;;;;;;;30.45;14.80;;;3.20;99.90;;;;;;5070708;28;20013;-79
2022/01/28 06:52:21;;;;;;;36.30;17.27;;;3.20;99.90;;;;;;5054445;28;20032;-80
2022/01/28 06:54:47;;;;;;;33.13;15.27;;;3.20;99.90;;;;;;5055091;28;20071;-79
2022/01/28 06:57:13;;;;;;;37.33;16.55;;;3.30;99.90;;;;;;5071271;28;20037;-79
2022/01/28 06:59:38;;;;;;;35.88;16.85;;;3.30;99.90;;;;;;5058977;28;20440;-80
2022/01/28 07:02:04;;;;;;;29.13;14.82;;;3.70;99.90;;;;;;5060673;28;20028;-79
2022/01/28 07:04:30;;;;;;;36.75;15.80;;;3.30;99.90;;;;;;5077514;28;20021;-80
2022/01/28 07:06:56;;;;;;;31.77;14.82;;;2.90;99.90;;;;;;5078598;28;20027;-79
2022/01/28 07:09:21;;;;;;;33.80;15.85;;;3.20;99.90;;;;;;5078793;28;20048;-79
2022/01/28 07:11:47;;;;;;;38.33;17.02;;;3.20;99.90;;;;;;5079047;28;20021;-81
2022/01/28 07:14:12;;;;;;;31.50;15.25;;;3.20;99.90;;;;;;5079679;28;20028;-79
2022/01/28 07:16:38;;;;;;;26.60;11.77;;;3.10;99.90;;;;;;5080236;28;20397;-79
2022/01/28 07:19:04;;;;;;;29.60;14.52;;;3.20;99.90;;;;;;5078389;28;20125;-79
2022/01/28 07:21:30;;;;;;;35.85;14.18;;;3.20;99.90;;;;;;5079149;28;20032;-79
2022/01/28 07:23:56;;;;;;;35.75;16.77;;;3.10;99.90;;;;;;5075483;28;20029;-79
2022/01/28 07:26:21;;;;;;;39.95;16.20;;;4.20;99.90;;;;;;5080192;28;20844;-79
2022/01/28 07:28:49;;;;;;;30.30;13.75;;;3.00;99.90;;;;;;5077743;28;20032;-79
2022/01/28 07:31:17;;;;;;;35.13;15.30;;;3.00;99.90;;;;;;5069760;28;20029;-79
2022/01/28 07:33:43;;;;;;;36.50;16.13;;;3.10;99.90;;;;;;5076637;28;20082;-78
2022/01/28 07:36:08;;;;;;;32.70;15.07;;;3.50;99.90;;;;;;5077899;28;20396;-79
2022/01/28 07:38:34;;;;;;;35.13;15.38;;;3.00;99.90;;;;;;5076240;28;20074;-78
2022/01/28 07:41:01;;;;;;;34.17;16.23;;;3.00;99.90;;;;;;5077079;28;20153;-78
2022/01/28 07:43:27;;;;;;;35.13;14.50;;;3.10;99.90;;;;;;5070822;28;20369;-78
2022/01/28 07:45:53;;;;;;;32.10;12.63;;;3.10;99.90;;;;;;5073763;28;20040;-78
2022/01/28 07:48:18;;;;;;;31.90;16.25;;;3.20;99.90;;;;;;5065466;28;20025;-79
2022/01/28 07:50:44;;;;;;;31.92;15.57;;;3.30;99.90;;;;;;5076176;28;20073;-78
2022/01/28 07:53:14;;;;;;;33.15;14.60;;;3.40;99.90;;;;;;5077014;28;20043;-79
2022/01/28 07:55:39;;;;;;;30.98;15.52;;;4.90;99.90;;;;;;5076479;28;20028;-80
2022/01/28 07:58:05;;;;;;;30.73;14.77;;;4.10;99.90;;;;;;5060177;28;20504;-79
2022/01/28 08:00:31;;;;;;;31.77;15.35;;;3.50;99.90;;;;;;5057859;28;20086;-80
2022/01/28 08:02:56;;;;;;;27.45;13.30;;;4.40;99.90;;;;;;5070509;28;20029;-80
2022/01/28 08:05:22;;;;;;;30.25;14.65;;;4.40;99.90;;;;;;5064361;28;20112;-80
2022/01/28 08:07:48;;;;;;;27.55;12.38;;;3.50;99.90;;;;;;5063321;28;20032;-80
2022/01/28 08:10:16;;;;;;;29.75;14.05;;;4.60;99.90;;;;;;5075896;28;20103;-80
2022/01/28 08:12:50;;;;;;;26.83;13.13;;;3.60;99.90;;;;;;5086855;28;20071;-78
2022/01/28 08:15:16;;;;;;;31.23;14.05;;;3.50;99.90;;;;;;5088234;28;20392;-80
2022/01/28 08:17:43;;;;;;;28.73;13.77;;;5.20;99.90;;;;;;5089338;28;20054;-79
2022/01/28 08:20:09;;;;;;;27.95;12.93;;;3.60;99.90;;;;;;5079366;28;20035;-79
2022/01/28 08:22:52;;;;;;;26.92;14.52;;;3.60;99.90;;;;;;5057181;28;20095;-80
2022/01/28 08:25:21;;;;;;;26.05;13.18;;;3.70;99.90;;;;;;5068125;28;20025;-80
2022/01/28 08:27:47;;;;;;;27.20;14.80;;;3.70;99.90;;;;;;5080363;28;20040;-79
2022/01/28 08:30:15;;;;;;;26.63;12.45;;;3.70;99.90;;;;;;5077979;28;20024;-79
2022/01/28 08:32:41;;;;;;;29.17;12.95;;;3.70;99.90;;;;;;5068741;28;20025;-80
2022/01/28 08:35:07;;;;;;;23.13;12.13;;;3.80;99.90;;;;;;5059008;28;20489;-79
2022/01/28 08:37:33;;;;;;;24.40;12.23;;;3.70;99.90;;;;;;5075444;28;20028;-80
2022/01/28 08:40:00;;;;;;;30.40;14.35;;;3.70;99.90;;;;;;5076031;28;20481;-80
2022/01/28 08:42:26;;;;;;;26.40;14.13;;;3.80;99.90;;;;;;5077059;28;20021;-80
2022/01/28 08:44:51;;;;;;;27.38;14.13;;;3.70;99.90;;;;;;5070653;28;20032;-80
2022/01/28 08:47:17;;;;;;;25.75;12.60;;;4.00;99.90;;;;;;5077415;28;20036;-79
2022/01/28 08:49:42;;;;;;;23.67;13.00;;;4.10;99.90;;;;;;5076443;28;20035;-80
2022/01/28 08:52:08;;;;;;;25.17;12.75;;;4.20;99.90;;;;;;5076633;28;20032;-80
2022/01/28 08:54:34;;;;;;;28.52;12.65;;;4.10;99.90;;;;;;5076643;28;20115;-80
2022/01/28 08:56:59;;;;;;;22.90;12.35;;;4.10;99.90;;;;;;5078165;28;20088;-80
2022/01/28 08:59:25;;;;;;;24.60;13.13;;;4.10;99.90;;;;;;5080508;28;20035;-80
2022/01/28 09:01:50;;;;;;;27.65;13.25;;;4.70;99.90;;;;;;5078435;28;20028;-80
2022/01/28 09:04:16;;;;;;;28.17;14.65;;;4.40;99.90;;;;;;5076850;28;20467;-81
2022/01/28 09:06:42;;;;;;;27.83;14.02;;;5.00;99.90;;;;;;5075911;28;20040;-80
2022/01/28 09:09:07;;;;;;;30.88;14.57;;;4.40;99.90;;;;;;5066649;28;20544;-80
2022/01/28 09:11:46;;;;;;;22.63;11.98;;;5.10;99.90;;;;;;5077515;28;20511;-80
2022/01/28 09:14:14;;;;;;;27.52;13.35;;;4.30;99.90;;;;;;5076605;28;20028;-80
2022/01/28 09:16:40;;;;;;;18.65;10.02;;;4.40;99.90;;;;;;5076418;28;20020;-80
2022/01/28 09:19:07;;;;;;;21.83;12.35;;;4.80;99.90;;;;;;5072812;28;20029;-80
2022/01/28 09:21:32;;;;;;;23.67;13.25;;;4.40;99.90;;;;;;5076207;28;20090;-80
2022/01/28 09:23:58;;;;;;;23.27;11.98;;;4.50;99.90;;;;;;5075215;28;20548;-80
2022/01/28 09:26:24;;;;;;;23.98;13.43;;;4.60;99.90;;;;;;5060992;28;20509;-80
2022/01/28 09:28:50;;;;;;;22.70;11.25;;;4.60;99.90;;;;;;5069485;28;20039;-80
2022/01/28 09:31:16;;;;;;;20.67;12.07;;;4.70;99.90;;;;;;5079658;28;20036;-78
2022/01/28 09:33:41;;;;;;;20.65;11.60;;;4.60;99.90;;;;;;5079440;28;20035;-78
2022/01/28 09:36:07;;;;;;;21.42;12.65;;;4.60;99.90;;;;;;5079482;28;20041;-79
2022/01/28 09:38:34;;;;;;;22.92;11.82;;;6.20;99.90;;;;;;5077725;28;20485;-79
2022/01/28 09:41:02;;;;;;;21.88;11.82;;;4.80;99.90;;;;;;5075685;28;20036;-79
2022/01/28 09:43:28;;;;;;;22.98;11.63;;;4.90;99.90;;;;;;5061694;28;20031;-79
2022/01/28 09:45:54;;;;;;;22.15;11.60;;;4.90;99.90;;;;;;5075269;28;20020;-79
2022/01/28 09:48:20;;;;;;;20.40;12.15;;;5.00;99.90;;;;;;5074315;28;20405;-79
2022/01/28 09:50:46;;;;;;;21.50;11.40;;;5.10;99.90;;;;;;5075809;28;20020;-79
2022/01/28 09:53:13;;;;;;;22.35;11.02;;;5.60;99.90;;;;;;5075998;28;20017;-79
2022/01/28 09:55:39;;;;;;;19.65;9.85;;;5.50;99.90;;;;;;5075736;28;20111;-78
2022/01/28 09:58:05;;;;;;;20.45;11.48;;;5.50;99.90;;;;;;5076002;28;20064;-79
2022/01/28 10:00:32;;;;;;;18.02;10.30;;;5.20;99.90;;;;;;5074942;28;20041;-79
2022/01/28 10:03:02;;;;;;;19.30;11.63;;;5.30;99.90;;;;;;5073907;28;20020;-78
2022/01/28 10:05:33;;;;;;;21.48;10.55;;;5.00;99.90;;;;;;5074627;28;20025;-79
2022/01/28 10:08:08;;;;;;;17.58;9.90;;;5.10;99.90;;;;;;5074695;28;20509;-78
2022/01/28 10:11:09;;;;;;;22.35;11.70;;;5.10;99.90;;;;;;5073955;28;20032;-79
2022/01/28 10:13:43;;;;;;;19.65;10.20;;;5.10;99.90;;;;;;5074366;28;20025;-79
2022/01/28 10:16:14;;;;;;;18.15;9.27;;;6.10;99.90;;;;;;5053877;28;20037;-78
2022/01/28 10:18:50;;;;;;;19.52;10.63;;;7.20;99.90;;;;;;5068998;28;20501;-79
2022/01/28 10:21:20;;;;;;;21.05;11.23;;;5.20;99.90;;;;;;5076164;28;20032;-79
2022/01/28 10:23:54;;;;;;;21.10;9.73;;;5.30;99.90;;;;;;5078306;28;20412;-79
2022/01/28 10:26:27;;;;;;;18.92;10.10;;;5.30;99.90;;;;;;5074524;28;20048;-79
2022/01/28 10:28:53;;;;;;;17.58;10.38;;;6.80;99.90;;;;;;5082080;28;20416;-78
2022/01/28 10:31:19;;;;;;;21.48;10.73;;;6.40;99.90;;;;;;5081983;28;20037;-79
2022/01/28 10:33:44;;;;;;;21.55;10.52;;;6.10;99.90;;;;;;5082715;28;20040;-78
2022/01/28 10:36:10;;;;;;;28.50;11.75;;;5.20;99.90;;;;;;5081906;28;20397;-79
2022/01/28 10:38:38;;;;;;;18.50;10.02;;;5.10;99.90;;;;;;5075201;28;20517;-79
2022/01/28 10:41:08;;;;;;;18.23;9.65;;;5.10;99.90;;;;;;5074981;28;20035;-79
2022/01/28 10:43:46;;;;;;;21.55;10.18;;;5.30;99.90;;;;;;5069703;28;20093;-79
2022/01/28 10:46:13;;;;;;;19.50;11.23;;;7.40;99.90;;;;;;5060615;28;20025;-79
2022/01/28 10:48:53;;;;;;;18.50;10.32;;;5.30;99.90;;;;;;5074335;28;20392;-79
2022/01/28 10:51:20;;;;;;;20.88;10.00;;;5.80;99.90;;;;;;5075465;28;20059;-79
2022/01/28 10:54:22;;;;;;;18.50;10.35;;;6.70;99.90;;;;;;5077184;28;20081;-79
2022/01/28 10:56:57;;;;;;;19.30;10.85;;;6.90;99.90;;;;;;5081135;28;20507;-79
2022/01/28 10:59:26;;;;;;;18.15;10.18;;;6.70;99.90;;;;;;5082898;28;20037;-78
2022/01/28 11:01:52;;;;;;;19.42;10.07;;;6.60;99.90;;;;;;5075360;28;20033;-79
2022/01/28 11:04:19;;;;;;;22.70;10.80;;;7.70;99.90;;;;;;5074678;28;20025;-79
2022/01/28 11:06:47;;;;;;;18.17;10.75;;;6.80;99.90;;;;;;5074249;28;20562;-79
2022/01/28 11:09:14;;;;;;;19.67;11.25;;;7.00;99.90;;;;;;5073485;28;20095;-79
2022/01/28 11:11:41;;;;;;;17.17;9.60;;;8.30;99.90;;;;;;5073951;28;20047;-78
2022/01/28 11:14:07;;;;;;;18.45;9.52;;;7.60;99.90;;;;;;5078305;28;20020;-79
2022/01/28 11:16:33;;;;;;;20.08;10.25;;;7.90;99.90;;;;;;5076066;28;20039;-78
2022/01/28 11:18:59;;;;;;;17.63;9.90;;;7.70;99.90;;;;;;5071841;28;20075;-80
2022/01/28 11:21:39;;;;;;;25.33;11.02;;;7.20;99.90;;;;;;5053529;28;20025;-79
2022/01/28 11:24:15;;;;;;;20.10;10.25;;;7.20;99.90;;;;;;5072991;28;20033;-80
2022/01/28 11:26:52;;;;;;;18.23;11.00;;;6.80;99.90;;;;;;5074804;28;20448;-80
2022/01/28 11:29:20;;;;;;;21.73;10.68;;;7.80;99.90;;;;;;5074335;28;20024;-79
2022/01/28 11:31:50;;;;;;;17.17;9.15;;;6.40;99.90;;;;;;5075290;28;20021;-80
2022/01/28 11:34:27;;;;;;;20.98;11.18;;;6.70;99.90;;;;;;5074635;28;20136;-80
2022/01/28 11:36:56;;;;;;;19.20;10.50;;;6.40;99.90;;;;;;5075097;28;20029;-79
2022/01/28 11:39:31;;;;;;;17.08;9.93;;;7.30;99.90;;;;;;5074847;28;20028;-80
2022/01/28 11:42:10;;;;;;;21.50;10.10;;;8.90;99.90;;;;;;5074664;28;20029;-80
2022/01/28 11:44:51;;;;;;;18.42;9.88;;;7.30;99.90;;;;;;5073050;28;20033;-80
2022/01/28 11:47:22;;;;;;;19.98;9.02;;;8.40;99.90;;;;;;5076127;28;20021;-79
2022/01/28 11:49:53;;;;;;;18.95;9.18;;;8.40;99.90;;;;;;5077454;28;20060;-79
2022/01/28 11:52:29;;;;;;;17.10;8.73;;;7.90;99.90;;;;;;5078158;28;20481;-80
2022/01/28 11:54:55;;;;;;;16.85;8.50;;;10.20;99.90;;;;;;5078156;28;20036;-79
2022/01/28 11:57:24;;;;;;;18.63;9.82;;;9.10;99.90;;;;;;5078579;28;20393;-79
2022/01/28 11:59:49;;;;;;;17.95;9.82;;;8.60;99.90;;;;;;5077071;28;20047;-80
2022/01/28 12:02:17;;;;;;;19.63;9.05;;;7.60;99.90;;;;;;5078391;28;20548;-79
2022/01/28 12:04:44;;;;;;;18.77;9.07;;;7.50;99.90;;;;;;5077490;28;20635;-79
2022/01/28 12:07:18;;;;;;;14.98;8.25;;;7.80;99.90;;;;;;5078309;28;20029;-80
2022/01/28 12:09:47;;;;;;;15.93;9.05;;;9.30;99.90;;;;;;5078145;28;20031;-80
2022/01/28 12:12:20;;;;;;;16.30;8.45;;;10.40;99.90;;;;;;5078775;28;20040;-79
2022/01/28 12:15:01;;;;;;;;;;;9.00;99.90;;;;;;5079477;28;20040;-80
2022/01/28 12:17:30;;;;;;;16.95;7.72;;;8.90;99.90;;;;;;5076443;28;19905;-80
2022/01/28 12:20:14;;;;;;;16.55;8.30;;;8.70;99.90;;;;;;5065113;28;20025;-79
2022/01/28 12:22:59;;;;;;;13.50;8.23;;;9.20;99.90;;;;;;5058349;28;20025;-79
2022/01/28 12:25:36;;;;;;;12.48;7.40;;;9.90;99.90;;;;;;5070885;28;20028;-80
2022/01/28 12:28:22;;;;;;;14.80;7.55;;;9.40;99.90;;;;;;5077429;28;20359;-80
2022/01/28 12:31:01;;;;;;;15.63;8.68;;;8.50;99.90;;;;;;5077764;28;20060;-80
2022/01/28 12:33:32;;;;;;;12.32;7.95;;;8.20;99.90;;;;;;5077469;28;20558;-80
2022/01/28 12:36:01;;;;;;;14.77;8.18;;;7.70;99.90;;;;;;5077546;28;20463;-79
2022/01/28 12:38:30;;;;;;;14.23;7.85;;;8.80;99.90;;;;;;5077189;28;20067;-80
2022/01/28 12:41:05;;;;;;;18.63;8.23;;;8.20;99.90;;;;;;5078205;28;20512;-79
2022/01/28 12:43:32;;;;;;;14.60;6.65;;;9.40;99.90;;;;;;5079427;28;20013;-79
2022/01/28 12:46:01;;;;;;;14.80;7.88;;;8.10;99.90;;;;;;5089408;28;20032;-79
2022/01/28 12:48:27;;;;;;;13.77;6.53;;;7.70;99.90;;;;;;5080136;28;20032;-80
2022/01/28 12:50:54;;;;;;;15.82;7.25;;;9.30;99.90;;;;;;5074450;28;20025;-80
2022/01/28 12:53:49;;;;;;;11.90;6.85;;;9.60;99.90;;;;;;5060239;28;20040;-81
2022/01/28 12:56:17;;;;;;;17.45;7.25;;;7.50;99.90;;;;;;5075346;28;20055;-80
2022/01/28 12:58:51;;;;;;;12.68;7.85;;;7.80;99.90;;;;;;5075680;28;20111;-80
2022/01/28 13:01:19;;;;;;;15.27;7.50;;;7.90;99.90;;;;;;5075837;28;20021;-80
2022/01/28 13:04:01;;;;;;;12.20;6.13;;;8.40;99.90;;;;;;5076373;28;20035;-80
2022/01/28 13:06:42;;;;;;;16.55;6.80;;;8.50;99.90;;;;;;5077381;28;20048;-80
2022/01/28 13:09:17;;;;;;;9.77;5.28;;;7.90;99.90;;;;;;5076466;28;20020;-80
2022/01/28 13:11:44;;;;;;;11.77;5.25;;;8.30;99.90;;;;;;5073904;28;20403;-79
2022/01/28 13:14:11;;;;;;;12.27;4.07;;;8.30;99.90;;;;;;5070265;28;20060;-79
2022/01/28 13:16:40;;;;;;;8.68;4.35;;;8.30;99.90;;;;;;5073720;28;20385;-79
2022/01/28 13:19:07;;;;;;;9.05;3.83;;;7.80;99.90;;;;;;5070005;28;20100;-80
2022/01/28 13:21:33;;;;;;;11.52;4.85;;;7.70;99.90;;;;;;5053265;28;20512;-81
2022/01/28 13:24:04;;;;;;;11.63;4.43;;;7.50;99.90;;;;;;5057301;28;20481;-79
2022/01/28 13:26:30;;;;;;;11.02;4.25;;;8.70;99.90;;;;;;5073399;28;20285;-79
2022/01/28 13:29:10;;;;;;;10.82;4.75;;;7.60;99.90;;;;;;5074779;28;20500;-78
2022/01/28 13:31:36;;;;;;;8.20;4.03;;;7.90;99.90;;;;;;5077845;28;20031;-78
2022/01/28 13:34:05;;;;;;;9.85;5.20;;;7.90;99.90;;;;;;5076449;28;20035;-78
2022/01/28 13:36:49;;;;;;;10.07;4.68;;;7.90;99.90;;;;;;5066466;28;20029;-79
2022/01/28 13:39:20;;;;;;;10.25;4.57;;;7.60;99.90;;;;;;5073076;28;20036;-79
2022/01/28 13:41:50;;;;;;;10.43;4.95;;;7.90;99.90;;;;;;5073237;28;20052;-79
2022/01/28 13:44:25;;;;;;;8.23;4.22;;;7.60;99.90;;;;;;5071626;28;20025;-78
2022/01/28 13:46:58;;;;;;;10.38;4.45;;;7.50;99.90;;;;;;5072252;28;20031;-79
2022/01/28 13:49:28;;;;;;;10.82;5.43;;;7.60;99.90;;;;;;5072213;28;20025;-77
2022/01/28 13:52:05;;;;;;;8.95;5.05;;;7.80;99.90;;;;;;5073613;28;20099;-78
2022/01/28 13:54:31;;;;;;;11.88;5.15;;;7.40;99.90;;;;;;5071784;28;20052;-79
2022/01/28 13:57:01;;;;;;;12.18;5.32;;;7.70;99.90;;;;;;5071992;28;20043;-79
2022/01/28 13:59:30;;;;;;;7.28;4.28;;;7.70;99.90;;;;;;5071534;28;20059;-79
2022/01/28 14:01:59;;;;;;;10.77;4.70;;;7.40;99.90;;;;;;5072320;28;20119;-79